sensor_id;sensor_type;location;lat;lon;timestamp;temperature;humidity
8093;DHT22;4089;52.420;13.334;2024-03-22T00:01:54;7.80;99.90
8093;DHT22;4089;52.420;13.334;2024-03-22T00:04:20;7.90;99.90
8093;DHT22;4089;52.420;13.334;2024-03-22T00:06:47;7.80;99.90
8093;DHT22;4089;52.420;13.334;2024-03-22T00:09:14;7.80;99.90
8093;DHT22;4089;52.420;13.334;2024-03-22T00:11:41;7.70;99.90
8093;DHT22;4089;52.420;13.334;2024-03-22T00:14:08;7.70;99.90
8093;DHT22;4089;52.420;13.334;2024-03-22T00:16:34;7.70;99.90
8093;DHT22;4089;52.420;13.334;2024-03-22T00:19:00;7.60;99.90
8093;DHT22;4089;52.420;13.334;2024-03-22T00:21:26;7.60;99.90
8093;DHT22;4089;52.420;13.334;2024-03-22T00:23:52;7.70;99.90
8093;DHT22;4089;52.420;13.334;2024-03-22T00:26:18;7.70;99.90
8093;DHT22;4089;52.420;13.334;2024-03-22T00:28:44;7.70;99.90
8093;DHT22;4089;52.420;13.334;2024-03-22T00:31:09;7.70;99.90
8093;DHT22;4089;52.420;13.334;2024-03-22T00:33:35;7.70;99.90
8093;DHT22;4089;52.420;13.334;2024-03-22T00:36:01;7.70;99.90
8093;DHT22;4089;52.420;13.334;2024-03-22T00:38:27;7.70;99.90
8093;DHT22;4089;52.420;13.334;2024-03-22T00:40:53;7.60;99.90
8093;DHT22;4089;52.420;13.334;2024-03-22T00:43:20;7.60;99.90
8093;DHT22;4089;52.420;13.334;2024-03-22T00:45:46;7.60;99.90
8093;DHT22;4089;52.420;13.334;2024-03-22T00:48:12;7.50;99.90
8093;DHT22;4089;52.420;13.334;2024-03-22T00:50:38;7.60;99.90
8093;DHT22;4089;52.420;13.334;2024-03-22T00:53:04;7.60;99.90
8093;DHT22;4089;52.420;13.334;2024-03-22T00:55:31;7.60;99.90
8093;DHT22;4089;52.420;13.334;2024-03-22T00:57:57;7.60;99.90
8093;DHT22;4089;52.420;13.334;2024-03-22T01:00:24;7.60;99.90
8093;DHT22;4089;52.420;13.334;2024-03-22T01:02:50;7.50;99.90
8093;DHT22;4089;52.420;13.334;2024-03-22T01:05:19;7.50;99.90
8093;DHT22;4089;52.420;13.334;2024-03-22T01:07:45;7.40;99.90
8093;DHT22;4089;52.420;13.334;2024-03-22T01:10:11;7.30;99.90
8093;DHT22;4089;52.420;13.334;2024-03-22T01:12:38;7.20;99.90
8093;DHT22;4089;52.420;13.334;2024-03-22T01:15:05;7.20;99.90
8093;DHT22;4089;52.420;13.334;2024-03-22T01:17:31;7.20;99.90
8093;DHT22;4089;52.420;13.334;2024-03-22T01:19:57;7.20;99.90
8093;DHT22;4089;52.420;13.334;2024-03-22T01:22:23;7.20;99.90
8093;DHT22;4089;52.420;13.334;2024-03-22T01:24:49;7.20;99.90
8093;DHT22;4089;52.420;13.334;2024-03-22T01:27:15;7.30;99.90
8093;DHT22;4089;52.420;13.334;2024-03-22T01:29:41;7.30;99.90
8093;DHT22;4089;52.420;13.334;2024-03-22T01:32:07;7.30;99.90
8093;DHT22;4089;52.420;13.334;2024-03-22T01:34:33;7.40;99.90
8093;DHT22;4089;52.420;13.334;2024-03-22T01:37:00;7.40;99.90
8093;DHT22;4089;52.420;13.334;2024-03-22T01:39:26;7.50;99.90
8093;DHT22;4089;52.420;13.334;2024-03-22T01:41:52;7.50;99.90
8093;DHT22;4089;52.420;13.334;2024-03-22T01:44:18;7.50;99.90
8093;DHT22;4089;52.420;13.334;2024-03-22T01:46:46;7.50;99.90
8093;DHT22;4089;52.420;13.334;2024-03-22T01:49:14;7.60;99.90
8093;DHT22;4089;52.420;13.334;2024-03-22T01:51:42;7.60;99.90
8093;DHT22;4089;52.420;13.334;2024-03-22T01:54:09;7.70;99.90
8093;DHT22;4089;52.420;13.334;2024-03-22T01:56:38;7.70;99.90
8093;DHT22;4089;52.420;13.334;2024-03-22T01:59:05;7.80;99.90
8093;DHT22;4089;52.420;13.334;2024-03-22T02:01:32;7.80;99.90
8093;DHT22;4089;52.420;13.334;2024-03-22T02:03:59;7.80;99.90
8093;DHT22;4089;52.420;13.334;2024-03-22T02:06:24;7.90;99.90
8093;DHT22;4089;52.420;13.334;2024-03-22T02:08:50;7.90;99.90
8093;DHT22;4089;52.420;13.334;2024-03-22T02:11:16;7.90;99.90
8093;DHT22;4089;52.420;13.334;2024-03-22T02:13:42;7.90;99.90
8093;DHT22;4089;52.420;13.334;2024-03-22T02:16:09;8.00;99.90
8093;DHT22;4089;52.420;13.334;2024-03-22T02:18:35;7.90;99.90
8093;DHT22;4089;52.420;13.334;2024-03-22T02:21:01;7.90;99.90
8093;DHT22;4089;52.420;13.334;2024-03-22T02:26:00;8.00;99.90
8093;DHT22;4089;52.420;13.334;2024-03-22T02:28:26;8.00;99.90
8093;DHT22;4089;52.420;13.334;2024-03-22T02:30:52;8.00;99.90
8093;DHT22;4089;52.420;13.334;2024-03-22T02:33:18;8.00;99.90
8093;DHT22;4089;52.420;13.334;2024-03-22T02:35:46;8.00;99.90
8093;DHT22;4089;52.420;13.334;2024-03-22T02:38:12;8.00;99.90
8093;DHT22;4089;52.420;13.334;2024-03-22T02:40:38;8.00;99.90
8093;DHT22;4089;52.420;13.334;2024-03-22T02:43:04;7.90;99.90
8093;DHT22;4089;52.420;13.334;2024-03-22T02:45:31;7.90;99.90
8093;DHT22;4089;52.420;13.334;2024-03-22T02:47:57;7.90;99.90
8093;DHT22;4089;52.420;13.334;2024-03-22T02:50:23;7.90;99.90
8093;DHT22;4089;52.420;13.334;2024-03-22T02:52:49;7.90;99.90
8093;DHT22;4089;52.420;13.334;2024-03-22T02:55:15;7.90;99.90
8093;DHT22;4089;52.420;13.334;2024-03-22T02:57:42;8.00;99.90
8093;DHT22;4089;52.420;13.334;2024-03-22T03:00:08;8.00;99.90
8093;DHT22;4089;52.420;13.334;2024-03-22T03:02:35;8.00;99.90
8093;DHT22;4089;52.420;13.334;2024-03-22T03:05:01;8.00;99.90
8093;DHT22;4089;52.420;13.334;2024-03-22T03:07:27;8.00;99.90
8093;DHT22;4089;52.420;13.334;2024-03-22T03:09:54;8.00;99.90
8093;DHT22;4089;52.420;13.334;2024-03-22T03:12:20;8.00;99.90
8093;DHT22;4089;52.420;13.334;2024-03-22T03:14:45;8.00;99.90
8093;DHT22;4089;52.420;13.334;2024-03-22T03:17:11;8.00;99.90
8093;DHT22;4089;52.420;13.334;2024-03-22T03:19:37;8.00;99.90
8093;DHT22;4089;52.420;13.334;2024-03-22T03:22:03;8.00;99.90
8093;DHT22;4089;52.420;13.334;2024-03-22T03:24:30;8.00;99.90
8093;DHT22;4089;52.420;13.334;2024-03-22T03:26:56;8.00;99.90
8093;DHT22;4089;52.420;13.334;2024-03-22T03:29:21;8.00;99.90
8093;DHT22;4089;52.420;13.334;2024-03-22T03:31:47;8.00;99.90
8093;DHT22;4089;52.420;13.334;2024-03-22T03:34:14;8.00;99.90
8093;DHT22;4089;52.420;13.334;2024-03-22T03:36:41;8.00;99.90
8093;DHT22;4089;52.420;13.334;2024-03-22T03:39:07;8.10;99.90
8093;DHT22;4089;52.420;13.334;2024-03-22T03:41:32;8.10;99.90
8093;DHT22;4089;52.420;13.334;2024-03-22T03:44:04;8.00;99.90
8093;DHT22;4089;52.420;13.334;2024-03-22T03:46:31;8.10;99.90
8093;DHT22;4089;52.420;13.334;2024-03-22T03:49:02;8.10;99.90
8093;DHT22;4089;52.420;13.334;2024-03-22T03:51:28;8.10;99.90
8093;DHT22;4089;52.420;13.334;2024-03-22T03:53:53;8.00;99.90
8093;DHT22;4089;52.420;13.334;2024-03-22T03:56:19;8.10;99.90
8093;DHT22;4089;52.420;13.334;2024-03-22T03:58:46;8.10;99.90
8093;DHT22;4089;52.420;13.334;2024-03-22T04:01:12;8.10;99.90
8093;DHT22;4089;52.420;13.334;2024-03-22T04:03:38;8.20;99.90
8093;DHT22;4089;52.420;13.334;2024-03-22T04:06:04;8.20;99.90
8093;DHT22;4089;52.420;13.334;2024-03-22T04:08:29;8.20;99.90
8093;DHT22;4089;52.420;13.334;2024-03-22T04:10:57;8.20;99.90
8093;DHT22;4089;52.420;13.334;2024-03-22T04:13:27;8.30;99.90
8093;DHT22;4089;52.420;13.334;2024-03-22T04:15:53;8.30;99.90
8093;DHT22;4089;52.420;13.334;2024-03-22T04:18:20;8.30;99.90
8093;DHT22;4089;52.420;13.334;2024-03-22T04:20:56;8.30;99.90
8093;DHT22;4089;52.420;13.334;2024-03-22T04:23:22;8.30;99.90
8093;DHT22;4089;52.420;13.334;2024-03-22T04:25:59;8.40;99.90
8093;DHT22;4089;52.420;13.334;2024-03-22T04:28:28;8.40;99.90
8093;DHT22;4089;52.420;13.334;2024-03-22T04:31:05;8.50;99.90
8093;DHT22;4089;52.420;13.334;2024-03-22T04:33:32;8.50;99.90
8093;DHT22;4089;52.420;13.334;2024-03-22T04:35:59;8.50;99.90
8093;DHT22;4089;52.420;13.334;2024-03-22T04:38:26;8.50;99.90
8093;DHT22;4089;52.420;13.334;2024-03-22T04:40:52;8.50;99.90
8093;DHT22;4089;52.420;13.334;2024-03-22T04:43:19;8.50;99.90
8093;DHT22;4089;52.420;13.334;2024-03-22T04:45:46;8.50;99.90
8093;DHT22;4089;52.420;13.334;2024-03-22T04:48:17;8.50;99.90
8093;DHT22;4089;52.420;13.334;2024-03-22T04:50:44;8.50;99.90
8093;DHT22;4089;52.420;13.334;2024-03-22T04:53:10;8.50;99.90
8093;DHT22;4089;52.420;13.334;2024-03-22T04:55:36;8.50;99.90
8093;DHT22;4089;52.420;13.334;2024-03-22T04:58:03;8.50;99.90
8093;DHT22;4089;52.420;13.334;2024-03-22T05:00:29;8.50;99.90
8093;DHT22;4089;52.420;13.334;2024-03-22T05:02:55;8.50;99.90
8093;DHT22;4089;52.420;13.334;2024-03-22T05:05:21;8.50;99.90
8093;DHT22;4089;52.420;13.334;2024-03-22T05:07:47;8.50;99.90
8093;DHT22;4089;52.420;13.334;2024-03-22T05:10:13;8.60;99.90
8093;DHT22;4089;52.420;13.334;2024-03-22T05:12:39;8.60;99.90
8093;DHT22;4089;52.420;13.334;2024-03-22T05:15:06;8.50;99.90
8093;DHT22;4089;52.420;13.334;2024-03-22T05:17:32;8.50;99.90
8093;DHT22;4089;52.420;13.334;2024-03-22T05:19:59;8.50;99.90
8093;DHT22;4089;52.420;13.334;2024-03-22T05:22:25;8.50;99.90
8093;DHT22;4089;52.420;13.334;2024-03-22T05:24:51;8.50;99.90
8093;DHT22;4089;52.420;13.334;2024-03-22T05:27:20;8.50;99.90
8093;DHT22;4089;52.420;13.334;2024-03-22T05:29:46;8.50;99.90
8093;DHT22;4089;52.420;13.334;2024-03-22T05:32:12;8.40;99.90
8093;DHT22;4089;52.420;13.334;2024-03-22T05:34:38;8.40;99.90
8093;DHT22;4089;52.420;13.334;2024-03-22T05:37:04;8.40;99.90
8093;DHT22;4089;52.420;13.334;2024-03-22T05:39:29;8.30;99.90
8093;DHT22;4089;52.420;13.334;2024-03-22T05:41:55;8.40;99.90
8093;DHT22;4089;52.420;13.334;2024-03-22T05:44:22;8.40;99.90
8093;DHT22;4089;52.420;13.334;2024-03-22T05:46:48;8.40;99.90
8093;DHT22;4089;52.420;13.334;2024-03-22T05:49:15;8.50;99.90
8093;DHT22;4089;52.420;13.334;2024-03-22T05:51:40;8.50;99.90
8093;DHT22;4089;52.420;13.334;2024-03-22T05:54:06;8.50;99.90
8093;DHT22;4089;52.420;13.334;2024-03-22T05:56:33;8.50;99.90
8093;DHT22;4089;52.420;13.334;2024-03-22T05:58:59;8.50;99.90
8093;DHT22;4089;52.420;13.334;2024-03-22T06:01:25;8.50;99.90
8093;DHT22;4089;52.420;13.334;2024-03-22T06:03:51;8.60;99.90
8093;DHT22;4089;52.420;13.334;2024-03-22T06:06:17;8.60;99.90
8093;DHT22;4089;52.420;13.334;2024-03-22T06:08:42;8.70;99.90
8093;DHT22;4089;52.420;13.334;2024-03-22T06:11:11;8.70;99.90
8093;DHT22;4089;52.420;13.334;2024-03-22T06:13:37;8.80;99.90
8093;DHT22;4089;52.420;13.334;2024-03-22T06:16:03;8.80;99.90
8093;DHT22;4089;52.420;13.334;2024-03-22T06:18:30;8.80;99.90
8093;DHT22;4089;52.420;13.334;2024-03-22T06:20:55;8.90;99.90
8093;DHT22;4089;52.420;13.334;2024-03-22T06:23:22;8.90;99.90
8093;DHT22;4089;52.420;13.334;2024-03-22T06:25:55;8.90;99.90
8093;DHT22;4089;52.420;13.334;2024-03-22T06:28:21;8.90;99.90
8093;DHT22;4089;52.420;13.334;2024-03-22T06:30:47;8.90;99.90
8093;DHT22;4089;52.420;13.334;2024-03-22T06:33:13;9.00;99.90
8093;DHT22;4089;52.420;13.334;2024-03-22T06:35:40;9.00;99.90
8093;DHT22;4089;52.420;13.334;2024-03-22T06:38:06;9.00;99.90
8093;DHT22;4089;52.420;13.334;2024-03-22T06:40:32;9.00;99.90
8093;DHT22;4089;52.420;13.334;2024-03-22T06:42:58;9.00;99.90
8093;DHT22;4089;52.420;13.334;2024-03-22T06:45:24;9.00;99.90
8093;DHT22;4089;52.420;13.334;2024-03-22T06:47:50;9.10;99.90
8093;DHT22;4089;52.420;13.334;2024-03-22T06:50:17;9.20;99.90
8093;DHT22;4089;52.420;13.334;2024-03-22T06:52:55;9.30;99.90
8093;DHT22;4089;52.420;13.334;2024-03-22T06:55:22;9.30;99.90
8093;DHT22;4089;52.420;13.334;2024-03-22T06:57:49;9.30;99.90
8093;DHT22;4089;52.420;13.334;2024-03-22T07:00:15;9.30;99.90
8093;DHT22;4089;52.420;13.334;2024-03-22T07:02:42;9.30;99.90
8093;DHT22;4089;52.420;13.334;2024-03-22T07:05:08;9.30;99.90
8093;DHT22;4089;52.420;13.334;2024-03-22T07:07:35;9.40;99.90
8093;DHT22;4089;52.420;13.334;2024-03-22T07:10:02;9.40;99.90
8093;DHT22;4089;52.420;13.334;2024-03-22T07:12:28;9.50;99.90
8093;DHT22;4089;52.420;13.334;2024-03-22T07:14:55;9.50;99.90
8093;DHT22;4089;52.420;13.334;2024-03-22T07:17:22;9.60;99.90
8093;DHT22;4089;52.420;13.334;2024-03-22T07:19:54;9.60;99.90
8093;DHT22;4089;52.420;13.334;2024-03-22T07:22:20;9.70;99.90
8093;DHT22;4089;52.420;13.334;2024-03-22T07:24:47;9.70;99.90
8093;DHT22;4089;52.420;13.334;2024-03-22T07:27:17;9.80;99.90
8093;DHT22;4089;52.420;13.334;2024-03-22T07:29:44;9.80;99.90
8093;DHT22;4089;52.420;13.334;2024-03-22T07:32:09;9.90;99.90
8093;DHT22;4089;52.420;13.334;2024-03-22T07:34:35;9.90;99.90
8093;DHT22;4089;52.420;13.334;2024-03-22T07:37:01;9.90;99.90
8093;DHT22;4089;52.420;13.334;2024-03-22T07:39:27;9.90;99.90
8093;DHT22;4089;52.420;13.334;2024-03-22T07:41:53;10.00;99.90
8093;DHT22;4089;52.420;13.334;2024-03-22T07:44:19;10.10;99.90
8093;DHT22;4089;52.420;13.334;2024-03-22T07:46:52;10.10;99.90
8093;DHT22;4089;52.420;13.334;2024-03-22T07:49:18;10.20;99.90
8093;DHT22;4089;52.420;13.334;2024-03-22T07:51:44;10.10;99.90
8093;DHT22;4089;52.420;13.334;2024-03-22T07:54:10;10.10;99.90
8093;DHT22;4089;52.420;13.334;2024-03-22T07:56:36;10.10;99.90
8093;DHT22;4089;52.420;13.334;2024-03-22T07:59:02;10.10;99.90
8093;DHT22;4089;52.420;13.334;2024-03-22T08:01:28;10.10;99.90
8093;DHT22;4089;52.420;13.334;2024-03-22T08:03:54;10.20;99.90
8093;DHT22;4089;52.420;13.334;2024-03-22T08:06:19;10.20;99.90
8093;DHT22;4089;52.420;13.334;2024-03-22T08:08:45;10.30;99.90
8093;DHT22;4089;52.420;13.334;2024-03-22T08:11:11;10.30;99.90
8093;DHT22;4089;52.420;13.334;2024-03-22T08:13:37;10.40;99.90
8093;DHT22;4089;52.420;13.334;2024-03-22T08:16:04;10.60;99.90
8093;DHT22;4089;52.420;13.334;2024-03-22T08:18:31;10.60;99.90
8093;DHT22;4089;52.420;13.334;2024-03-22T08:20:58;10.60;99.90
8093;DHT22;4089;52.420;13.334;2024-03-22T08:23:25;10.60;99.90
8093;DHT22;4089;52.420;13.334;2024-03-22T08:25:50;10.70;99.90
8093;DHT22;4089;52.420;13.334;2024-03-22T08:28:17;10.70;99.90
8093;DHT22;4089;52.420;13.334;2024-03-22T08:30:43;10.70;99.90
8093;DHT22;4089;52.420;13.334;2024-03-22T08:33:12;10.80;99.90
8093;DHT22;4089;52.420;13.334;2024-03-22T08:35:38;10.90;99.90
8093;DHT22;4089;52.420;13.334;2024-03-22T08:38:04;10.80;99.90
8093;DHT22;4089;52.420;13.334;2024-03-22T08:40:37;10.80;99.90
8093;DHT22;4089;52.420;13.334;2024-03-22T08:43:04;10.80;99.90
8093;DHT22;4089;52.420;13.334;2024-03-22T08:45:30;10.90;99.90
8093;DHT22;4089;52.420;13.334;2024-03-22T08:47:56;10.80;99.90
8093;DHT22;4089;52.420;13.334;2024-03-22T08:50:21;10.80;99.90
8093;DHT22;4089;52.420;13.334;2024-03-22T08:52:47;10.80;99.90
8093;DHT22;4089;52.420;13.334;2024-03-22T08:55:13;10.90;99.90
8093;DHT22;4089;52.420;13.334;2024-03-22T08:57:39;11.00;99.90
8093;DHT22;4089;52.420;13.334;2024-03-22T09:00:06;11.00;99.90
8093;DHT22;4089;52.420;13.334;2024-03-22T09:02:34;11.00;99.90
8093;DHT22;4089;52.420;13.334;2024-03-22T09:05:00;11.00;99.90
8093;DHT22;4089;52.420;13.334;2024-03-22T09:07:25;11.10;99.90
8093;DHT22;4089;52.420;13.334;2024-03-22T09:09:51;11.10;99.90
8093;DHT22;4089;52.420;13.334;2024-03-22T09:12:19;11.20;99.90
8093;DHT22;4089;52.420;13.334;2024-03-22T09:14:44;11.30;99.90
8093;DHT22;4089;52.420;13.334;2024-03-22T09:17:10;11.50;99.90
8093;DHT22;4089;52.420;13.334;2024-03-22T09:19:37;11.40;99.90
8093;DHT22;4089;52.420;13.334;2024-03-22T09:22:03;11.50;99.90
8093;DHT22;4089;52.420;13.334;2024-03-22T09:24:28;11.60;99.90
8093;DHT22;4089;52.420;13.334;2024-03-22T09:26:54;11.70;99.90
8093;DHT22;4089;52.420;13.334;2024-03-22T09:29:20;11.90;99.90
8093;DHT22;4089;52.420;13.334;2024-03-22T09:31:46;12.00;99.90
8093;DHT22;4089;52.420;13.334;2024-03-22T09:34:12;12.20;99.90
8093;DHT22;4089;52.420;13.334;2024-03-22T09:36:38;12.20;99.90
8093;DHT22;4089;52.420;13.334;2024-03-22T09:39:04;12.30;99.90
8093;DHT22;4089;52.420;13.334;2024-03-22T09:41:32;12.40;99.90
8093;DHT22;4089;52.420;13.334;2024-03-22T09:43:58;12.30;99.90
8093;DHT22;4089;52.420;13.334;2024-03-22T09:46:27;12.30;99.90
8093;DHT22;4089;52.420;13.334;2024-03-22T09:48:54;12.40;99.90
8093;DHT22;4089;52.420;13.334;2024-03-22T09:51:21;12.40;99.90
8093;DHT22;4089;52.420;13.334;2024-03-22T09:53:52;12.40;99.90
8093;DHT22;4089;52.420;13.334;2024-03-22T09:56:21;12.30;99.90
8093;DHT22;4089;52.420;13.334;2024-03-22T09:58:47;12.40;99.90
8093;DHT22;4089;52.420;13.334;2024-03-22T10:01:13;12.40;99.90
8093;DHT22;4089;52.420;13.334;2024-03-22T10:03:39;12.30;99.90
8093;DHT22;4089;52.420;13.334;2024-03-22T10:06:05;12.40;99.90
8093;DHT22;4089;52.420;13.334;2024-03-22T10:08:31;12.50;99.90
8093;DHT22;4089;52.420;13.334;2024-03-22T10:10:57;12.40;99.90
8093;DHT22;4089;52.420;13.334;2024-03-22T10:13:27;12.40;99.90
8093;DHT22;4089;52.420;13.334;2024-03-22T10:15:53;12.30;99.90
8093;DHT22;4089;52.420;13.334;2024-03-22T10:18:19;12.40;99.90
8093;DHT22;4089;52.420;13.334;2024-03-22T10:20:45;12.50;99.90
8093;DHT22;4089;52.420;13.334;2024-03-22T10:23:11;12.90;99.90
8093;DHT22;4089;52.420;13.334;2024-03-22T10:25:37;13.00;99.90
8093;DHT22;4089;52.420;13.334;2024-03-22T10:28:03;12.90;99.90
8093;DHT22;4089;52.420;13.334;2024-03-22T10:30:29;12.90;99.90
8093;DHT22;4089;52.420;13.334;2024-03-22T10:32:56;13.00;99.90
8093;DHT22;4089;52.420;13.334;2024-03-22T10:35:23;13.10;99.90
8093;DHT22;4089;52.420;13.334;2024-03-22T10:37:50;13.20;99.90
8093;DHT22;4089;52.420;13.334;2024-03-22T10:40:16;13.20;99.90
8093;DHT22;4089;52.420;13.334;2024-03-22T10:42:42;13.10;99.90
8093;DHT22;4089;52.420;13.334;2024-03-22T10:45:10;13.00;99.90
8093;DHT22;4089;52.420;13.334;2024-03-22T10:47:37;13.10;99.90
8093;DHT22;4089;52.420;13.334;2024-03-22T10:50:05;13.20;99.90
8093;DHT22;4089;52.420;13.334;2024-03-22T10:52:47;13.40;99.90
8093;DHT22;4089;52.420;13.334;2024-03-22T10:55:20;13.60;99.90
8093;DHT22;4089;52.420;13.334;2024-03-22T10:57:48;13.80;99.90
8093;DHT22;4089;52.420;13.334;2024-03-22T11:00:14;13.90;99.90
8093;DHT22;4089;52.420;13.334;2024-03-22T11:02:43;14.00;99.90
8093;DHT22;4089;52.420;13.334;2024-03-22T11:05:18;13.90;99.90
8093;DHT22;4089;52.420;13.334;2024-03-22T11:07:44;13.70;99.90
8093;DHT22;4089;52.420;13.334;2024-03-22T11:10:14;13.80;99.90
8093;DHT22;4089;52.420;13.334;2024-03-22T11:12:41;13.80;99.90
8093;DHT22;4089;52.420;13.334;2024-03-22T11:15:10;13.80;99.90
8093;DHT22;4089;52.420;13.334;2024-03-22T11:17:38;13.80;99.90
8093;DHT22;4089;52.420;13.334;2024-03-22T11:20:04;13.80;99.90
8093;DHT22;4089;52.420;13.334;2024-03-22T11:22:31;13.70;99.90
8093;DHT22;4089;52.420;13.334;2024-03-22T11:24:58;13.60;99.90
8093;DHT22;4089;52.420;13.334;2024-03-22T11:27:24;13.60;99.90
8093;DHT22;4089;52.420;13.334;2024-03-22T11:29:50;13.70;99.90
8093;DHT22;4089;52.420;13.334;2024-03-22T11:32:20;13.80;99.90
8093;DHT22;4089;52.420;13.334;2024-03-22T11:34:46;13.80;99.90
8093;DHT22;4089;52.420;13.334;2024-03-22T11:37:13;13.80;99.90
8093;DHT22;4089;52.420;13.334;2024-03-22T11:39:39;13.70;99.90
8093;DHT22;4089;52.420;13.334;2024-03-22T11:42:06;13.60;99.90
8093;DHT22;4089;52.420;13.334;2024-03-22T11:44:33;13.60;99.90
8093;DHT22;4089;52.420;13.334;2024-03-22T11:47:01;13.60;99.90
8093;DHT22;4089;52.420;13.334;2024-03-22T11:49:27;13.40;99.90
8093;DHT22;4089;52.420;13.334;2024-03-22T11:51:53;13.30;99.90
8093;DHT22;4089;52.420;13.334;2024-03-22T11:54:22;13.30;99.90
8093;DHT22;4089;52.420;13.334;2024-03-22T11:56:49;13.30;99.90
8093;DHT22;4089;52.420;13.334;2024-03-22T11:59:18;13.30;99.90
8093;DHT22;4089;52.420;13.334;2024-03-22T12:01:44;13.30;99.90
8093;DHT22;4089;52.420;13.334;2024-03-22T12:04:11;13.30;99.90
8093;DHT22;4089;52.420;13.334;2024-03-22T12:06:44;13.30;99.90
8093;DHT22;4089;52.420;13.334;2024-03-22T12:09:11;13.30;99.90
8093;DHT22;4089;52.420;13.334;2024-03-22T12:11:39;13.30;99.90
8093;DHT22;4089;52.420;13.334;2024-03-22T12:14:06;13.20;99.90
8093;DHT22;4089;52.420;13.334;2024-03-22T12:16:31;13.20;99.90
8093;DHT22;4089;52.420;13.334;2024-03-22T12:18:58;13.10;99.90
8093;DHT22;4089;52.420;13.334;2024-03-22T12:21:24;13.00;99.90
8093;DHT22;4089;52.420;13.334;2024-03-22T12:23:50;13.00;99.90
8093;DHT22;4089;52.420;13.334;2024-03-22T12:26:16;12.90;99.90
8093;DHT22;4089;52.420;13.334;2024-03-22T12:28:42;12.90;99.90
8093;DHT22;4089;52.420;13.334;2024-03-22T12:31:08;12.80;99.90
8093;DHT22;4089;52.420;13.334;2024-03-22T12:33:37;12.80;99.90
8093;DHT22;4089;52.420;13.334;2024-03-22T12:36:03;12.80;99.90
8093;DHT22;4089;52.420;13.334;2024-03-22T12:38:30;12.70;99.90
8093;DHT22;4089;52.420;13.334;2024-03-22T12:40:56;12.60;99.90
8093;DHT22;4089;52.420;13.334;2024-03-22T12:43:22;12.60;99.90
8093;DHT22;4089;52.420;13.334;2024-03-22T12:45:48;12.70;99.90
8093;DHT22;4089;52.420;13.334;2024-03-22T12:48:15;12.60;99.90
8093;DHT22;4089;52.420;13.334;2024-03-22T12:50:41;12.60;99.90
8093;DHT22;4089;52.420;13.334;2024-03-22T12:53:06;12.50;99.90
8093;DHT22;4089;52.420;13.334;2024-03-22T12:55:32;12.40;99.90
8093;DHT22;4089;52.420;13.334;2024-03-22T12:57:58;12.20;99.90
8093;DHT22;4089;52.420;13.334;2024-03-22T13:00:24;12.10;99.90
8093;DHT22;4089;52.420;13.334;2024-03-22T13:02:51;12.00;99.90
8093;DHT22;4089;52.420;13.334;2024-03-22T13:05:17;12.00;99.90
8093;DHT22;4089;52.420;13.334;2024-03-22T13:07:43;11.90;99.90
8093;DHT22;4089;52.420;13.334;2024-03-22T13:10:09;12.00;99.90
8093;DHT22;4089;52.420;13.334;2024-03-22T13:12:35;12.10;99.90
8093;DHT22;4089;52.420;13.334;2024-03-22T13:15:02;12.20;99.90
8093;DHT22;4089;52.420;13.334;2024-03-22T13:17:28;12.10;99.90
8093;DHT22;4089;52.420;13.334;2024-03-22T13:19:54;12.00;99.90
8093;DHT22;4089;52.420;13.334;2024-03-22T13:22:20;12.10;99.90
8093;DHT22;4089;52.420;13.334;2024-03-22T13:24:46;12.10;99.90
8093;DHT22;4089;52.420;13.334;2024-03-22T13:27:12;12.10;99.90
8093;DHT22;4089;52.420;13.334;2024-03-22T13:29:41;12.20;99.90
8093;DHT22;4089;52.420;13.334;2024-03-22T13:32:07;12.30;99.90
8093;DHT22;4089;52.420;13.334;2024-03-22T13:34:35;12.30;99.90
8093;DHT22;4089;52.420;13.334;2024-03-22T13:37:01;12.30;99.90
8093;DHT22;4089;52.420;13.334;2024-03-22T13:39:27;12.30;99.90
8093;DHT22;4089;52.420;13.334;2024-03-22T13:41:55;12.40;99.90
8093;DHT22;4089;52.420;13.334;2024-03-22T13:44:21;12.40;99.90
8093;DHT22;4089;52.420;13.334;2024-03-22T13:46:50;12.40;99.90
8093;DHT22;4089;52.420;13.334;2024-03-22T13:49:19;12.40;99.90
8093;DHT22;4089;52.420;13.334;2024-03-22T13:51:49;12.30;99.90
8093;DHT22;4089;52.420;13.334;2024-03-22T13:54:16;12.30;99.90
8093;DHT22;4089;52.420;13.334;2024-03-22T13:56:42;12.40;99.90
8093;DHT22;4089;52.420;13.334;2024-03-22T13:59:08;12.40;99.90
8093;DHT22;4089;52.420;13.334;2024-03-22T14:01:37;12.40;99.90
8093;DHT22;4089;52.420;13.334;2024-03-22T14:04:04;12.40;99.90
8093;DHT22;4089;52.420;13.334;2024-03-22T14:06:31;12.30;99.90
8093;DHT22;4089;52.420;13.334;2024-03-22T14:08:58;12.30;99.90
8093;DHT22;4089;52.420;13.334;2024-03-22T14:11:28;12.30;99.90
8093;DHT22;4089;52.420;13.334;2024-03-22T14:13:56;12.30;99.90
8093;DHT22;4089;52.420;13.334;2024-03-22T14:16:23;12.30;99.90
8093;DHT22;4089;52.420;13.334;2024-03-22T14:18:48;12.30;99.90
8093;DHT22;4089;52.420;13.334;2024-03-22T14:21:16;12.30;99.90
8093;DHT22;4089;52.420;13.334;2024-03-22T14:23:49;12.20;99.90
8093;DHT22;4089;52.420;13.334;2024-03-22T14:26:18;12.20;99.90
8093;DHT22;4089;52.420;13.334;2024-03-22T14:28:44;12.10;99.90
8093;DHT22;4089;52.420;13.334;2024-03-22T14:31:10;12.20;99.90
8093;DHT22;4089;52.420;13.334;2024-03-22T14:33:37;12.20;99.90
8093;DHT22;4089;52.420;13.334;2024-03-22T14:36:04;12.20;99.90
8093;DHT22;4089;52.420;13.334;2024-03-22T14:38:31;12.20;99.90
8093;DHT22;4089;52.420;13.334;2024-03-22T14:40:57;12.20;99.90
8093;DHT22;4089;52.420;13.334;2024-03-22T14:43:24;12.30;99.90
8093;DHT22;4089;52.420;13.334;2024-03-22T14:45:51;12.30;99.90
8093;DHT22;4089;52.420;13.334;2024-03-22T14:48:21;12.30;99.90
8093;DHT22;4089;52.420;13.334;2024-03-22T14:50:47;12.30;99.90
8093;DHT22;4089;52.420;13.334;2024-03-22T14:53:14;12.30;99.90
8093;DHT22;4089;52.420;13.334;2024-03-22T14:55:54;12.30;99.90
8093;DHT22;4089;52.420;13.334;2024-03-22T14:58:24;12.40;99.90
8093;DHT22;4089;52.420;13.334;2024-03-22T15:01:10;12.30;99.90
8093;DHT22;4089;52.420;13.334;2024-03-22T15:03:36;12.30;99.90
8093;DHT22;4089;52.420;13.334;2024-03-22T15:06:02;12.30;99.90
8093;DHT22;4089;52.420;13.334;2024-03-22T15:08:28;12.20;99.90
8093;DHT22;4089;52.420;13.334;2024-03-22T15:10:55;12.20;99.90
8093;DHT22;4089;52.420;13.334;2024-03-22T15:13:21;12.20;99.90
8093;DHT22;4089;52.420;13.334;2024-03-22T15:15:57;12.20;99.90
8093;DHT22;4089;52.420;13.334;2024-03-22T15:18:24;12.20;99.90
8093;DHT22;4089;52.420;13.334;2024-03-22T15:20:50;12.10;99.90
8093;DHT22;4089;52.420;13.334;2024-03-22T15:23:17;12.20;99.90
8093;DHT22;4089;52.420;13.334;2024-03-22T15:25:44;12.10;99.90
8093;DHT22;4089;52.420;13.334;2024-03-22T15:28:10;12.10;99.90
8093;DHT22;4089;52.420;13.334;2024-03-22T15:30:37;12.10;99.90
8093;DHT22;4089;52.420;13.334;2024-03-22T15:33:08;12.00;99.90
8093;DHT22;4089;52.420;13.334;2024-03-22T15:35:37;11.90;99.90
8093;DHT22;4089;52.420;13.334;2024-03-22T15:38:03;11.90;99.90
8093;DHT22;4089;52.420;13.334;2024-03-22T15:40:32;11.90;99.90
8093;DHT22;4089;52.420;13.334;2024-03-22T15:42:59;11.80;99.90
8093;DHT22;4089;52.420;13.334;2024-03-22T15:45:25;11.90;99.90
8093;DHT22;4089;52.420;13.334;2024-03-22T15:47:51;11.90;99.90
8093;DHT22;4089;52.420;13.334;2024-03-22T15:50:17;11.90;99.90
8093;DHT22;4089;52.420;13.334;2024-03-22T15:52:44;11.90;99.90